createdAt,value
2018-04-01T00:00:08.594Z,32.10
2018-04-01T00:01:08.552Z,30.30
2018-04-01T00:02:08.520Z,29.40
2018-04-01T00:03:08.488Z,29.30
2018-04-01T00:04:08.459Z,29.20
2018-04-01T00:05:08.423Z,27.80
2018-04-01T00:06:08.394Z,29.70
2018-04-01T00:07:08.362Z,29.60
2018-04-01T00:08:08.328Z,29.90
2018-04-01T00:09:08.295Z,29.50
2018-04-01T00:10:08.263Z,30.70
2018-04-01T00:11:08.232Z,30.00
2018-04-01T00:12:08.200Z,30.90
2018-04-01T00:13:08.167Z,29.50
2018-04-01T00:14:08.136Z,30.40
2018-04-01T00:15:08.104Z,29.30
2018-04-01T00:16:08.072Z,28.30
2018-04-01T00:17:08.039Z,30.20
2018-04-01T00:18:08.008Z,28.10
2018-04-01T00:19:07.975Z,29.20
2018-04-01T00:20:07.944Z,28.90
2018-04-01T00:21:07.911Z,31.90
2018-04-01T00:22:07.879Z,29.60
2018-04-01T00:23:07.847Z,32.60
2018-04-01T00:24:07.816Z,29.30
2018-04-01T00:25:07.784Z,30.10
2018-04-01T00:26:07.751Z,30.80
2018-04-01T00:27:07.719Z,28.70
2018-04-01T00:28:07.688Z,29.00
2018-04-01T00:29:07.655Z,28.00
2018-04-01T00:30:07.626Z,30.50
2018-04-01T00:31:07.591Z,29.30
2018-04-01T00:32:07.563Z,29.20
2018-04-01T00:33:07.530Z,31.60
2018-04-01T00:34:07.495Z,27.70
2018-04-01T00:35:07.472Z,28.40
2018-04-01T00:36:07.431Z,25.80
2018-04-01T00:37:07.400Z,27.50
2018-04-01T00:38:07.370Z,27.40
2018-04-01T00:39:07.335Z,25.60
2018-04-01T00:40:07.303Z,24.70
2018-04-01T00:41:07.275Z,26.00
2018-04-01T00:42:07.243Z,28.10
2018-04-01T00:43:07.206Z,27.30
2018-04-01T00:44:07.176Z,27.30
2018-04-01T00:45:07.157Z,29.50
2018-04-01T00:46:07.110Z,28.70
2018-04-01T00:47:07.079Z,26.70
2018-04-01T00:48:07.047Z,24.50
2018-04-01T00:49:07.014Z,28.30
2018-04-01T00:50:06.982Z,26.40
2018-04-01T00:51:06.950Z,25.40
2018-04-01T00:52:06.919Z,27.60
2018-04-01T00:53:06.886Z,27.10
2018-04-01T00:54:06.855Z,26.80
2018-04-01T00:55:06.823Z,27.20
2018-04-01T00:56:06.791Z,25.60
2018-04-01T00:57:06.760Z,28.40
2018-04-01T00:58:06.727Z,26.60
2018-04-01T00:59:06.702Z,27.40
2018-04-01T01:00:06.664Z,28.00
2018-04-01T01:01:06.630Z,27.40
2018-04-01T01:02:06.599Z,27.80
2018-04-01T01:03:06.566Z,26.30
2018-04-01T01:04:06.542Z,26.50
2018-04-01T01:05:06.504Z,25.60
2018-04-01T01:06:06.470Z,28.10
2018-04-01T01:07:06.440Z,27.20
2018-04-01T01:08:06.407Z,26.10
2018-04-01T01:09:06.374Z,26.80
2018-04-01T01:10:06.357Z,26.70
2018-04-01T01:11:06.310Z,28.10
2018-04-01T01:12:06.279Z,28.30
2018-04-01T01:13:06.249Z,25.70
2018-04-01T01:14:06.215Z,28.10
2018-04-01T01:15:06.189Z,25.90
2018-04-01T01:16:06.151Z,25.60
2018-04-01T01:17:06.120Z,25.60
2018-04-01T01:18:06.088Z,26.60
2018-04-01T01:19:06.056Z,27.90
2018-04-01T01:20:06.023Z,26.90
2018-04-01T01:21:05.991Z,25.40
2018-04-01T01:22:05.960Z,27.50
2018-04-01T01:23:05.927Z,27.40
2018-04-01T01:24:05.896Z,28.90
2018-04-01T01:25:05.863Z,25.10
2018-04-01T01:26:05.830Z,28.00
2018-04-01T01:27:05.800Z,26.70
2018-04-01T01:28:05.767Z,28.20
2018-04-01T01:29:05.734Z,26.30
2018-04-01T01:30:05.702Z,27.40
2018-04-01T01:31:05.674Z,27.20
2018-04-01T01:32:05.639Z,27.60
2018-04-01T01:33:05.607Z,27.30
2018-04-01T01:34:05.574Z,32.90
2018-04-01T01:35:05.542Z,29.10
2018-04-01T01:36:05.510Z,28.60
2018-04-01T01:37:05.479Z,28.30
2018-04-01T01:38:05.447Z,27.10
2018-04-01T01:39:05.415Z,30.10
2018-04-01T01:40:05.384Z,32.80
2018-04-01T01:41:05.350Z,31.70
2018-04-01T01:42:05.322Z,31.50
2018-04-01T01:43:05.286Z,31.10
2018-04-01T01:44:05.261Z,30.70
2018-04-01T01:45:05.222Z,31.80
2018-04-01T01:46:05.195Z,29.60
2018-04-01T01:47:05.162Z,31.00
2018-04-01T01:48:05.128Z,30.90
2018-04-01T01:49:05.096Z,30.50
2018-04-01T01:50:05.063Z,32.30
2018-04-01T01:51:05.031Z,29.70
2018-04-01T01:52:05.006Z,32.40
2018-04-01T01:53:04.967Z,35.50
2018-04-01T01:54:04.938Z,32.70
2018-04-01T01:55:04.904Z,31.70
2018-04-01T01:56:04.871Z,37.50
2018-04-01T01:57:04.839Z,33.40
2018-04-01T01:58:04.807Z,34.10
2018-04-01T01:59:04.774Z,33.00
2018-04-01T02:00:04.746Z,33.20
2018-04-01T02:01:04.712Z,37.10
2018-04-01T02:02:04.678Z,32.50
2018-04-01T02:03:04.647Z,35.20
2018-04-01T02:04:04.615Z,35.90
2018-04-01T02:05:04.582Z,31.00
2018-04-01T02:06:04.550Z,35.30
2018-04-01T02:07:04.523Z,32.90
2018-04-01T02:08:05.640Z,33.20
2018-04-01T02:09:04.454Z,34.80
2018-04-01T02:10:04.423Z,39.10
2018-04-01T02:11:04.390Z,34.20
2018-04-01T02:12:04.358Z,35.20
2018-04-01T02:13:04.326Z,37.30
2018-04-01T02:14:04.294Z,34.60
2018-04-01T02:15:04.264Z,33.70
2018-04-01T02:16:04.233Z,36.60
2018-04-01T02:17:04.205Z,35.80
2018-04-01T02:18:04.173Z,36.20
2018-04-01T02:19:04.142Z,36.40
2018-04-01T02:20:04.103Z,34.40
2018-04-01T02:21:04.070Z,38.10
2018-04-01T02:22:04.039Z,39.20
2018-04-01T02:23:04.007Z,37.00
2018-04-01T02:24:03.978Z,36.20
2018-04-01T02:25:03.944Z,34.00
2018-04-01T02:26:03.914Z,36.60
2018-04-01T02:27:03.879Z,36.20
2018-04-01T02:28:03.852Z,39.60
2018-04-01T02:29:03.815Z,37.80
2018-04-01T02:30:03.788Z,40.00
2018-04-01T02:31:03.758Z,39.00
2018-04-01T02:32:03.721Z,39.70
2018-04-01T02:33:03.688Z,41.80
2018-04-01T02:34:03.657Z,39.00
2018-04-01T02:35:03.626Z,40.70
2018-04-01T02:36:03.597Z,42.70
2018-04-01T02:37:03.559Z,42.20
2018-04-01T02:38:03.539Z,40.50
2018-04-01T02:39:03.496Z,39.80
2018-04-01T02:40:03.464Z,40.50
2018-04-01T02:41:03.436Z,39.70
2018-04-01T02:42:03.400Z,41.70
2018-04-01T02:43:03.372Z,40.30
2018-04-01T02:44:03.338Z,39.10
2018-04-01T02:45:03.313Z,41.20
2018-04-01T02:46:03.281Z,42.00
2018-04-01T02:47:03.242Z,42.30
2018-04-01T02:48:03.209Z,39.20
2018-04-01T02:49:03.177Z,41.90
2018-04-01T02:50:03.152Z,40.00
2018-04-01T02:51:03.115Z,41.20
2018-04-01T02:52:03.086Z,39.80
2018-04-01T02:53:03.049Z,40.10
2018-04-01T02:54:03.024Z,40.30
2018-04-01T02:55:02.998Z,37.00
2018-04-01T02:56:02.956Z,34.00
2018-04-01T02:57:02.931Z,34.20
2018-04-01T02:58:02.907Z,35.30
2018-04-01T02:59:02.863Z,36.20
2018-04-01T03:00:02.826Z,37.80
2018-04-01T03:01:02.804Z,34.70
2018-04-01T03:02:02.761Z,37.80
2018-04-01T03:03:02.730Z,35.20
2018-04-01T03:04:02.701Z,36.40
2018-04-01T03:05:02.671Z,36.50
2018-04-01T03:06:02.636Z,36.70
2018-04-01T03:07:02.602Z,35.90
2018-04-01T03:08:02.571Z,34.50
2018-04-01T03:09:02.537Z,34.30
2018-04-01T03:10:02.505Z,32.10
2018-04-01T03:11:02.496Z,35.50
2018-04-01T03:12:02.442Z,33.00
2018-04-01T03:13:02.409Z,35.50
2018-04-01T03:14:02.395Z,35.80
2018-04-01T03:15:02.348Z,35.50
2018-04-01T03:16:02.346Z,35.90
2018-04-01T03:17:02.282Z,35.90
2018-04-01T03:18:02.248Z,35.40
2018-04-01T03:19:02.216Z,33.50
2018-04-01T03:20:02.196Z,33.60
2018-04-01T03:21:02.152Z,33.50
2018-04-01T03:22:02.121Z,32.40
2018-04-01T03:23:02.089Z,33.50
2018-04-01T03:24:02.056Z,34.60
2018-04-01T03:25:02.025Z,36.80
2018-04-01T03:26:01.995Z,34.40
2018-04-01T03:27:01.962Z,35.50
2018-04-01T03:28:01.929Z,38.20
2018-04-01T03:29:01.902Z,33.00
2018-04-01T03:30:01.869Z,35.10
2018-04-01T03:31:01.834Z,34.00
2018-04-01T03:32:01.802Z,32.90
2018-04-01T03:33:01.768Z,33.80
2018-04-01T03:34:01.741Z,31.60
2018-04-01T03:35:01.705Z,32.90
2018-04-01T03:36:01.677Z,35.20
2018-04-01T03:37:01.640Z,31.60
2018-04-01T03:38:01.609Z,34.40
2018-04-01T03:39:01.577Z,32.80
2018-04-01T03:40:01.544Z,33.70
2018-04-01T03:41:01.521Z,34.30
2018-04-01T03:42:01.480Z,32.60
2018-04-01T03:43:01.464Z,33.30
2018-04-01T03:44:01.417Z,35.50
2018-04-01T03:45:01.384Z,36.50
2018-04-01T03:46:01.357Z,35.50
2018-04-01T03:47:01.321Z,34.30
2018-04-01T03:48:01.303Z,33.70
2018-04-01T03:49:01.256Z,33.90
2018-04-01T03:50:01.224Z,31.70
2018-04-01T03:51:01.192Z,33.30
2018-04-01T03:52:01.161Z,34.00
2018-04-01T03:53:01.131Z,34.00
2018-04-01T03:54:01.096Z,34.20
2018-04-01T03:55:01.064Z,32.00
2018-04-01T03:56:01.036Z,34.40
2018-04-01T03:57:01.000Z,34.80
2018-04-01T03:58:00.968Z,33.10
2018-04-01T03:59:00.936Z,33.70
2018-04-01T04:00:00.906Z,34.10
2018-04-01T04:01:00.872Z,31.10
2018-04-01T04:02:00.840Z,34.10
2018-04-01T04:03:00.810Z,31.60
2018-04-01T04:04:00.777Z,30.80
2018-04-01T04:05:00.744Z,30.80
2018-04-01T04:06:00.713Z,32.10
2018-04-01T04:07:00.681Z,31.40
2018-04-01T04:08:00.661Z,32.40
2018-04-01T04:09:00.616Z,31.60
2018-04-01T04:10:00.588Z,35.20
2018-04-01T04:11:00.553Z,33.50
2018-04-01T04:12:00.521Z,29.50
2018-04-01T04:13:00.490Z,28.60
2018-04-01T04:14:00.457Z,31.20
2018-04-01T04:15:00.425Z,33.40
2018-04-01T04:16:00.393Z,32.90
2018-04-01T04:17:00.360Z,29.70
2018-04-01T04:18:00.329Z,30.10
2018-04-01T04:19:00.298Z,31.20
2018-04-01T04:20:00.271Z,32.00
2018-04-01T04:21:00.237Z,33.10
2018-04-01T04:22:00.201Z,29.40
2018-04-01T04:23:00.169Z,31.30
2018-04-01T04:24:00.140Z,31.50
2018-04-01T04:25:00.106Z,30.20
2018-04-01T04:26:00.074Z,30.60
2018-04-01T04:27:00.042Z,31.90
2018-04-01T04:28:00.010Z,30.70
2018-04-01T04:28:59.977Z,32.90
2018-04-01T04:29:59.953Z,32.10
2018-04-01T04:30:59.914Z,31.60
2018-04-01T04:31:59.883Z,31.80
2018-04-01T04:32:59.849Z,30.10
2018-04-01T04:33:59.817Z,31.20
2018-04-01T04:34:59.786Z,30.20
2018-04-01T04:35:59.755Z,33.60
2018-04-01T04:36:59.722Z,32.70
2018-04-01T04:37:59.690Z,33.00
2018-04-01T04:38:59.658Z,30.00
2018-04-01T04:39:59.628Z,33.80
2018-04-01T04:40:59.594Z,33.20
2018-04-01T04:41:59.562Z,30.40
2018-04-01T04:42:59.531Z,32.90
2018-04-01T04:43:59.501Z,32.50
2018-04-01T04:44:59.466Z,31.80
2018-04-01T04:45:59.439Z,30.50
2018-04-01T04:46:59.403Z,36.60
2018-04-01T04:47:59.372Z,30.10
2018-04-01T04:48:59.338Z,30.30
2018-04-01T04:49:59.307Z,32.30
2018-04-01T04:50:59.275Z,30.80
2018-04-01T04:51:59.243Z,32.30
2018-04-01T04:52:59.210Z,31.00
2018-04-01T04:53:59.179Z,31.00
2018-04-01T04:54:59.147Z,27.00
2018-04-01T04:55:59.116Z,29.70
2018-04-01T04:56:59.082Z,30.60
2018-04-01T04:57:59.055Z,29.90
2018-04-01T04:58:59.019Z,31.30
2018-04-01T04:59:58.987Z,30.40
2018-04-01T05:00:58.956Z,28.10
2018-04-01T05:01:58.929Z,28.10
2018-04-01T05:02:58.892Z,27.80
2018-04-01T05:03:58.860Z,29.30
2018-04-01T05:04:58.827Z,28.20
2018-04-01T05:05:58.795Z,27.30
2018-04-01T05:06:58.767Z,28.20
2018-04-01T05:07:58.732Z,28.70
2018-04-01T05:08:58.700Z,29.20
2018-04-01T05:09:58.668Z,27.90
2018-04-01T05:10:58.635Z,24.90
2018-04-01T05:11:58.604Z,27.70
2018-04-01T05:12:58.571Z,27.70
2018-04-01T05:13:58.539Z,29.70
2018-04-01T05:14:58.511Z,29.80
2018-04-01T05:15:58.627Z,30.40
2018-04-01T05:16:58.447Z,30.30
2018-04-01T05:17:58.412Z,28.10
2018-04-01T05:18:58.381Z,31.30
2018-04-01T05:19:58.349Z,28.30
2018-04-01T05:20:58.321Z,27.90
2018-04-01T05:21:58.284Z,30.90
2018-04-01T05:22:58.253Z,28.80
2018-04-01T05:23:58.221Z,25.90
2018-04-01T05:24:58.189Z,29.80
2018-04-01T05:25:58.157Z,26.80
2018-04-01T05:26:58.131Z,28.10
2018-04-01T05:27:58.093Z,26.60
2018-04-01T05:28:58.060Z,29.00
2018-04-01T05:29:58.030Z,29.40
2018-04-01T05:30:57.999Z,28.30
2018-04-01T05:31:57.966Z,29.90
2018-04-01T05:32:57.941Z,28.30
2018-04-01T05:33:57.903Z,27.00
2018-04-01T05:34:57.869Z,28.50
2018-04-01T05:35:57.839Z,28.70
2018-04-01T05:36:57.804Z,28.80
2018-04-01T05:37:57.773Z,27.80
2018-04-01T05:38:57.748Z,30.20
2018-04-01T05:39:57.713Z,27.50
2018-04-01T05:40:57.680Z,26.00
2018-04-01T05:41:57.646Z,28.80
2018-04-01T05:42:57.616Z,27.00
2018-04-01T05:43:57.583Z,30.50
2018-04-01T05:44:57.551Z,26.60
2018-04-01T05:45:57.519Z,27.40
2018-04-01T05:46:57.487Z,26.00
2018-04-01T05:47:57.459Z,27.90
2018-04-01T05:48:57.423Z,26.90
2018-04-01T05:49:57.397Z,29.90
2018-04-01T05:50:57.360Z,26.90
2018-04-01T05:51:57.330Z,26.90
2018-04-01T05:52:57.302Z,25.10
2018-04-01T05:53:57.268Z,23.80
2018-04-01T05:54:57.240Z,24.30
2018-04-01T05:55:57.201Z,28.40
2018-04-01T05:56:57.174Z,26.50
2018-04-01T05:57:57.138Z,25.50
2018-04-01T05:58:57.107Z,26.30
2018-04-01T05:59:57.074Z,21.90
2018-04-01T06:00:57.045Z,25.70
2018-04-01T06:01:57.011Z,27.10
2018-04-01T06:02:56.979Z,23.50
2018-04-01T06:03:56.949Z,23.70
2018-04-01T06:04:56.915Z,24.00
2018-04-01T06:05:56.886Z,22.40
2018-04-01T06:06:56.863Z,24.60
2018-04-01T06:07:56.821Z,23.10
2018-04-01T06:08:56.788Z,25.60
2018-04-01T06:09:56.757Z,24.30
2018-04-01T06:10:56.750Z,23.70
2018-04-01T06:11:56.694Z,22.60
2018-04-01T06:12:56.662Z,22.00
2018-04-01T06:13:56.631Z,22.90
2018-04-01T06:14:56.600Z,22.00
2018-04-01T06:15:56.569Z,20.60
2018-04-01T06:16:56.537Z,20.20
2018-04-01T06:17:56.508Z,20.40
2018-04-01T06:18:56.495Z,20.80
2018-04-01T06:19:56.443Z,21.80
2018-04-01T06:20:56.411Z,19.90
2018-04-01T06:21:56.379Z,20.60
2018-04-01T06:22:56.351Z,20.20
2018-04-01T06:23:56.317Z,20.00
2018-04-01T06:24:56.286Z,20.10
2018-04-01T06:25:56.254Z,18.90
2018-04-01T06:26:56.224Z,19.20
2018-04-01T06:27:56.204Z,20.10
2018-04-01T06:28:56.161Z,19.50
2018-04-01T06:29:56.129Z,21.30
2018-04-01T06:30:56.098Z,19.30
2018-04-01T06:31:56.068Z,19.80
2018-04-01T06:32:56.035Z,20.70
2018-04-01T06:33:56.008Z,20.80
2018-04-01T06:34:55.973Z,18.30
2018-04-01T06:35:55.942Z,19.30
2018-04-01T06:36:55.910Z,18.50
2018-04-01T06:37:55.879Z,18.40
2018-04-01T06:38:55.848Z,18.70
2018-04-01T06:39:55.870Z,17.90
2018-04-01T06:40:55.785Z,19.20
2018-04-01T06:41:55.755Z,19.80
2018-04-01T06:42:55.724Z,19.00
2018-04-01T06:43:55.698Z,18.50
2018-04-01T06:44:55.661Z,18.10
2018-04-01T06:45:55.630Z,18.60
2018-04-01T06:46:55.599Z,18.40
2018-04-01T06:47:55.569Z,18.40
2018-04-01T06:48:55.537Z,18.70
2018-04-01T06:49:55.509Z,19.60
2018-04-01T06:50:55.475Z,18.60
2018-04-01T06:51:55.445Z,17.30
2018-04-01T06:52:55.412Z,16.70
2018-04-01T06:53:55.383Z,18.10
2018-04-01T06:54:55.353Z,17.30
2018-04-01T06:55:55.324Z,13.60
2018-04-01T06:56:55.292Z,16.50
2018-04-01T06:57:55.260Z,18.10
2018-04-01T06:58:55.230Z,15.30
2018-04-01T06:59:55.202Z,13.10
2018-04-01T07:00:55.169Z,17.60
2018-04-01T07:01:55.140Z,17.80
2018-04-01T07:02:55.110Z,16.50
2018-04-01T07:03:55.079Z,15.60
2018-04-01T07:04:55.049Z,16.00
2018-04-01T07:05:55.023Z,15.20
2018-04-01T07:06:54.994Z,15.90
2018-04-01T07:07:54.959Z,16.90
2018-04-01T07:08:54.929Z,15.30
2018-04-01T07:09:54.906Z,16.00
2018-04-01T07:10:54.872Z,15.10
2018-04-01T07:11:54.842Z,15.30
2018-04-01T07:12:55.310Z,15.80
2018-04-01T07:13:54.780Z,15.90
2018-04-01T07:14:54.758Z,15.70
2018-04-01T07:15:54.722Z,16.20
2018-04-01T07:16:54.690Z,15.90
2018-04-01T07:17:54.662Z,17.10
2018-04-01T07:18:54.633Z,16.60
2018-04-01T07:19:54.609Z,15.20
2018-04-01T07:20:54.578Z,18.10
2018-04-01T07:21:54.543Z,16.70
2018-04-01T07:22:54.515Z,16.00
2018-04-01T07:23:54.485Z,16.30
2018-04-01T07:24:54.459Z,14.70
2018-04-01T07:25:54.425Z,15.00
2018-04-01T07:26:54.398Z,15.20
2018-04-01T07:27:54.369Z,15.90
2018-04-01T07:28:54.335Z,16.80
2018-04-01T07:29:54.306Z,16.20
2018-04-01T07:30:54.281Z,17.30
2018-04-01T07:31:54.246Z,15.50
2018-04-01T07:32:54.218Z,13.10
2018-04-01T07:33:54.186Z,14.20
2018-04-01T07:34:54.156Z,14.60
2018-04-01T07:35:54.127Z,15.90
2018-04-01T07:36:54.096Z,14.80
2018-04-01T07:37:54.066Z,14.70
2018-04-01T07:38:54.036Z,15.20
2018-04-01T07:39:54.007Z,14.80
2018-04-01T07:40:53.985Z,15.70
2018-04-01T07:41:54.297Z,14.20
2018-04-01T07:42:53.917Z,15.00
2018-04-01T07:43:53.891Z,16.30
2018-04-01T07:44:53.856Z,16.00
2018-04-01T07:45:53.828Z,15.90
2018-04-01T07:46:53.799Z,17.10
2018-04-01T07:47:53.770Z,16.00
2018-04-01T07:48:53.738Z,15.50
2018-04-01T07:49:53.708Z,16.00
2018-04-01T07:50:53.682Z,15.70
2018-04-01T07:51:53.650Z,14.30
2018-04-01T07:52:53.619Z,14.40
2018-04-01T07:53:53.591Z,14.10
2018-04-01T07:54:53.567Z,13.50
2018-04-01T07:55:53.532Z,14.90
2018-04-01T07:56:53.505Z,14.70
2018-04-01T07:57:53.473Z,15.00
2018-04-01T07:58:53.444Z,15.00
2018-04-01T07:59:53.415Z,15.80
2018-04-01T08:00:53.386Z,14.00
2018-04-01T08:01:53.361Z,15.10
2018-04-01T08:02:53.329Z,13.40
2018-04-01T08:03:53.300Z,13.90
2018-04-01T08:04:53.270Z,12.00
2018-04-01T08:05:53.445Z,13.50
2018-04-01T08:06:53.213Z,12.90
2018-04-01T08:07:53.185Z,14.80
2018-04-01T08:08:53.155Z,12.80
2018-04-01T08:09:53.126Z,15.30
2018-04-01T08:10:53.099Z,12.50
2018-04-01T08:11:53.070Z,14.00
2018-04-01T08:12:53.040Z,13.80
2018-04-01T08:13:53.013Z,13.30
2018-04-01T08:14:53.044Z,13.20
2018-04-01T08:15:52.958Z,12.10
2018-04-01T08:16:52.925Z,13.90
2018-04-01T08:17:52.897Z,12.80
2018-04-01T08:18:52.872Z,12.40
2018-04-01T08:19:52.840Z,12.80
2018-04-01T08:20:52.821Z,13.70
2018-04-01T08:21:52.783Z,12.20
2018-04-01T08:22:52.754Z,11.40
2018-04-01T08:23:52.726Z,15.60
2018-04-01T08:24:52.697Z,13.90
2018-04-01T08:25:52.672Z,13.30
2018-04-01T08:26:52.646Z,12.90
2018-04-01T08:27:52.614Z,13.50
2018-04-01T08:28:52.582Z,13.70
2018-04-01T08:29:52.552Z,12.00
2018-04-01T08:30:52.525Z,12.50
2018-04-01T08:31:52.498Z,14.70
2018-04-01T08:32:52.466Z,11.60
2018-04-01T08:33:52.437Z,12.60
2018-04-01T08:34:52.408Z,11.70
2018-04-01T08:35:52.380Z,12.30
2018-04-01T08:36:52.351Z,11.70
2018-04-01T08:37:52.323Z,12.00
2018-04-01T08:38:52.296Z,13.80
2018-04-01T08:39:52.265Z,13.10
2018-04-01T08:40:52.240Z,13.80
2018-04-01T08:41:52.207Z,12.50
2018-04-01T08:42:52.178Z,12.90
2018-04-01T08:43:52.150Z,12.50
2018-04-01T08:44:52.121Z,12.40
2018-04-01T08:45:52.092Z,13.80
2018-04-01T08:46:52.066Z,12.20
2018-04-01T08:47:52.036Z,12.60
2018-04-01T08:48:52.007Z,11.50
2018-04-01T08:49:51.979Z,12.20
2018-04-01T08:50:51.953Z,10.00
2018-04-01T08:51:51.923Z,10.60
2018-04-01T08:52:51.906Z,10.90
2018-04-01T08:53:51.866Z,10.70
2018-04-01T08:54:51.838Z,10.80
2018-04-01T08:55:51.811Z,12.30
2018-04-01T08:56:51.782Z,11.80
2018-04-01T08:57:51.754Z,10.60
2018-04-01T08:58:51.728Z,11.60
2018-04-01T08:59:51.697Z,10.80
2018-04-01T09:00:51.669Z,13.40
2018-04-01T09:01:51.641Z,14.00
2018-04-01T09:02:51.614Z,11.80
2018-04-01T09:03:51.585Z,11.70
2018-04-01T09:04:51.556Z,11.00
2018-04-01T09:05:51.527Z,11.60
2018-04-01T09:06:51.500Z,13.60
2018-04-01T09:07:51.474Z,11.20
2018-04-01T09:08:51.443Z,10.70
2018-04-01T09:09:51.417Z,9.20
2018-04-01T09:10:51.387Z,9.10
2018-04-01T09:11:51.359Z,9.10
2018-04-01T09:12:51.330Z,9.70
2018-04-01T09:13:51.305Z,9.80
2018-04-01T09:14:51.278Z,10.20
2018-04-01T09:15:51.246Z,9.60
2018-04-01T09:16:51.217Z,11.60
2018-04-01T09:17:51.190Z,11.40
2018-04-01T09:18:51.160Z,12.10
2018-04-01T09:19:51.143Z,12.00
2018-04-01T09:20:51.105Z,10.40
2018-04-01T09:21:51.077Z,11.90
2018-04-01T09:22:51.048Z,11.80
2018-04-01T09:23:51.019Z,11.90
2018-04-01T09:24:50.990Z,12.50
2018-04-01T09:25:50.963Z,12.20
2018-04-01T09:26:50.935Z,13.00
2018-04-01T09:27:50.907Z,12.50
2018-04-01T09:28:50.881Z,11.30
2018-04-01T09:29:50.851Z,10.40
2018-04-01T09:30:50.826Z,10.70
2018-04-01T09:31:50.797Z,9.90
2018-04-01T09:32:51.069Z,10.90
2018-04-01T09:33:50.742Z,10.90
2018-04-01T09:34:50.715Z,10.60
2018-04-01T09:35:50.688Z,11.30
2018-04-01T09:36:50.735Z,11.40
2018-04-01T09:37:50.634Z,12.00
2018-04-01T09:38:50.625Z,12.90
2018-04-01T09:39:50.580Z,12.60
2018-04-01T09:40:50.551Z,13.50
2018-04-01T09:41:50.524Z,13.80
2018-04-01T09:42:50.498Z,13.00
2018-04-01T09:43:50.468Z,11.90
2018-04-01T09:44:50.441Z,10.80
2018-04-01T09:45:50.418Z,9.70
2018-04-01T09:46:50.387Z,10.50
2018-04-01T09:47:50.359Z,10.40
2018-04-01T09:48:50.330Z,10.10
2018-04-01T09:49:50.303Z,10.10
2018-04-01T09:50:50.275Z,10.40
2018-04-01T09:51:50.248Z,11.20
2018-04-01T09:52:50.220Z,10.70
2018-04-01T09:53:50.196Z,10.10
2018-04-01T09:54:50.166Z,9.70
2018-04-01T09:55:50.142Z,10.90
2018-04-01T09:56:50.111Z,9.10
2018-04-01T09:57:50.084Z,10.40
2018-04-01T09:58:50.060Z,10.00
2018-04-01T09:59:50.040Z,10.40
2018-04-01T10:00:50.004Z,11.50
2018-04-01T10:01:49.980Z,10.50
2018-04-01T10:02:49.948Z,11.30
2018-04-01T10:03:49.921Z,12.00
2018-04-01T10:04:49.894Z,11.70
2018-04-01T10:05:49.865Z,11.00
2018-04-01T10:06:49.838Z,11.50
2018-04-01T10:07:49.810Z,10.30
2018-04-01T10:08:49.790Z,10.60
2018-04-01T10:09:49.753Z,8.80
2018-04-01T10:10:49.728Z,9.40
2018-04-01T10:11:49.698Z,9.00
2018-04-01T10:12:49.674Z,9.30
2018-04-01T10:13:49.646Z,9.80
2018-04-01T10:14:49.616Z,8.60
2018-04-01T10:15:49.588Z,8.10
2018-04-01T10:16:49.560Z,8.80
2018-04-01T10:17:49.532Z,7.50
2018-04-01T10:18:49.505Z,9.00
2018-04-01T10:19:49.479Z,8.90
2018-04-01T10:20:49.450Z,8.20
2018-04-01T10:21:49.422Z,7.10
2018-04-01T10:22:49.412Z,6.90
2018-04-01T10:23:49.368Z,8.10
2018-04-01T10:24:49.349Z,6.90
2018-04-01T10:25:49.314Z,6.80
2018-04-01T10:26:49.295Z,7.50
2018-04-01T10:27:49.258Z,7.50
2018-04-01T10:28:49.241Z,7.50
2018-04-01T10:29:49.206Z,6.90
2018-04-01T10:30:49.175Z,6.70
2018-04-01T10:31:49.149Z,7.10
2018-04-01T10:32:49.122Z,5.70
2018-04-01T10:33:49.093Z,6.10
2018-04-01T10:34:49.066Z,6.10
2018-04-01T10:35:49.040Z,7.00
2018-04-01T10:36:49.012Z,6.40
2018-04-01T10:37:48.995Z,6.20
2018-04-01T10:38:48.958Z,7.20
2018-04-01T10:39:48.941Z,6.00
2018-04-01T10:40:48.904Z,6.20
2018-04-01T10:41:48.876Z,7.50
2018-04-01T10:42:48.849Z,6.30
2018-04-01T10:43:48.825Z,7.00
2018-04-01T10:44:48.796Z,6.50
2018-04-01T10:45:48.767Z,6.80
2018-04-01T10:46:48.740Z,5.70
2018-04-01T10:47:48.712Z,6.50
2018-04-01T10:48:48.683Z,6.40
2018-04-01T10:49:48.656Z,7.90
2018-04-01T10:50:48.633Z,8.10
2018-04-01T10:51:48.604Z,8.10
2018-04-01T10:52:48.573Z,8.20
2018-04-01T10:53:48.550Z,9.30
2018-04-01T10:54:48.518Z,8.40
2018-04-01T10:55:48.489Z,8.40
2018-04-01T10:56:48.460Z,8.20
2018-04-01T10:57:48.434Z,8.40
2018-04-01T10:58:48.405Z,8.50
2018-04-01T10:59:48.377Z,6.30
2018-04-01T11:00:48.349Z,5.60
2018-04-01T11:01:48.321Z,6.50
2018-04-01T11:02:48.292Z,8.50
2018-04-01T11:03:48.266Z,8.50
2018-04-01T11:04:48.237Z,8.00
2018-04-01T11:05:48.208Z,6.40
2018-04-01T11:06:48.195Z,7.60
2018-04-01T11:07:48.153Z,6.70
2018-04-01T11:08:48.126Z,7.00
2018-04-01T11:09:48.097Z,6.90
2018-04-01T11:10:48.068Z,6.10
2018-04-01T11:11:48.039Z,5.90
2018-04-01T11:12:48.013Z,6.00
2018-04-01T11:13:47.987Z,6.60
2018-04-01T11:14:47.956Z,6.90
2018-04-01T11:15:47.940Z,8.70
2018-04-01T11:16:47.898Z,7.10
2018-04-01T11:17:47.869Z,8.10
2018-04-01T11:18:47.840Z,7.10
2018-04-01T11:19:47.828Z,7.20
2018-04-01T11:20:47.783Z,10.20
2018-04-01T11:21:47.754Z,8.30
2018-04-01T11:22:47.731Z,9.00
2018-04-01T11:23:47.698Z,7.50
2018-04-01T11:24:47.673Z,7.80
2018-04-01T11:25:47.640Z,10.20
2018-04-01T11:26:47.612Z,8.60
2018-04-01T11:27:47.584Z,9.50
2018-04-01T11:28:47.556Z,8.80
2018-04-01T11:29:47.527Z,9.40
2018-04-01T11:30:47.498Z,7.60
2018-04-01T11:31:47.473Z,8.20
2018-04-01T11:32:47.440Z,9.10
2018-04-01T11:33:47.411Z,8.30
2018-04-01T11:34:47.386Z,9.50
2018-04-01T11:35:47.356Z,10.00
2018-04-01T11:36:47.327Z,8.90
2018-04-01T11:37:47.297Z,9.30
2018-04-01T11:38:47.270Z,8.90
2018-04-01T11:39:47.249Z,11.80
2018-04-01T11:40:47.210Z,11.40
2018-04-01T11:41:47.181Z,12.10
2018-04-01T11:42:47.152Z,12.10
2018-04-01T11:43:47.125Z,12.00
2018-04-01T11:44:47.094Z,14.20
2018-04-01T11:45:47.066Z,12.80
2018-04-01T11:46:47.046Z,12.50
2018-04-01T11:47:47.010Z,11.20
2018-04-01T11:48:46.980Z,13.00
2018-04-01T11:49:46.952Z,13.70
2018-04-01T11:50:46.924Z,11.80
2018-04-01T11:51:46.895Z,12.70
2018-04-01T11:52:46.866Z,14.00
2018-04-01T11:53:46.841Z,12.90
2018-04-01T11:54:46.810Z,13.50
2018-04-01T11:55:46.782Z,15.20
2018-04-01T11:56:46.785Z,13.90
2018-04-01T11:57:46.725Z,13.00
2018-04-01T11:58:46.699Z,13.20
2018-04-01T11:59:46.672Z,13.00
2018-04-01T12:00:46.647Z,15.20
2018-04-01T12:01:46.615Z,12.70
2018-04-01T12:02:46.625Z,12.60
2018-04-01T12:03:46.585Z,12.00
2018-04-01T12:04:46.525Z,13.90
2018-04-01T12:05:46.498Z,13.40
2018-04-01T12:06:46.475Z,13.40
2018-04-01T12:07:46.440Z,14.60
2018-04-01T12:08:46.411Z,15.60
2018-04-01T12:09:46.383Z,15.40
2018-04-01T12:10:46.354Z,13.70
2018-04-01T12:11:46.326Z,14.80
2018-04-01T12:12:46.298Z,13.20
2018-04-01T12:13:46.268Z,16.10
2018-04-01T12:14:46.239Z,13.60
2018-04-01T12:15:46.212Z,13.40
2018-04-01T12:16:46.184Z,13.30
2018-04-01T12:17:46.153Z,12.60
2018-04-01T12:18:46.125Z,13.80
2018-04-01T12:19:46.097Z,11.70
2018-04-01T12:20:46.067Z,12.60
2018-04-01T12:21:46.039Z,13.40
2018-04-01T12:22:46.011Z,11.90
2018-04-01T12:23:45.987Z,12.70
2018-04-01T12:24:45.953Z,12.00
2018-04-01T12:25:45.926Z,13.20
2018-04-01T12:26:45.898Z,12.10
2018-04-01T12:27:45.872Z,11.40
2018-04-01T12:28:45.842Z,11.90
2018-04-01T12:29:45.812Z,10.40
2018-04-01T12:30:45.784Z,10.70
2018-04-01T12:31:45.757Z,9.90
2018-04-01T12:32:45.728Z,12.40
2018-04-01T12:33:45.700Z,10.40
2018-04-01T12:34:45.672Z,11.80
2018-04-01T12:35:45.645Z,11.30
2018-04-01T12:36:45.616Z,11.40
2018-04-01T12:37:45.586Z,11.30
2018-04-01T12:38:45.559Z,10.50
2018-04-01T12:39:45.530Z,12.20
2018-04-01T12:40:45.502Z,11.70
2018-04-01T12:41:45.474Z,11.70
2018-04-01T12:42:45.446Z,13.40
2018-04-01T12:43:45.418Z,13.70
2018-04-01T12:44:45.400Z,11.20
2018-04-01T12:45:45.361Z,12.30
2018-04-01T12:46:45.333Z,11.50
2018-04-01T12:47:45.306Z,12.30
2018-04-01T12:48:45.278Z,13.70
2018-04-01T12:49:45.249Z,12.10
2018-04-01T12:50:45.221Z,11.40
2018-04-01T12:51:45.193Z,11.50
2018-04-01T12:52:45.165Z,12.80
2018-04-01T12:53:45.137Z,14.60
2018-04-01T12:54:45.109Z,13.70